Aviation Digital Data Service (ADDS)

Output produced by TAFs form (1324 UTC 19 July 2018)
found at http://www.aviationweather.gov/adds/tafs/
 
KDEN 191253Z 24009KT 9SM BKN220 21/11 A3016 RMK AO2 SLP118 T02110106
KDEN 191123Z 1912/2018 24007KT P6SM BKN250 
     FM191700 33006KT P6SM FEW250 
     FM192300 03006KT P6SM FEW250 
     FM200200 07006KT P6SM FEW250 
     FM200500 14006KT P6SM FEW250 
     FM200700 18006KT P6SM FEW250 
     FM201400 28006KT P6SM FEW250